Time;durP1;ratioP1;P1;durP2;ratioP2;P2;SDS_P1;SDS_P2;PMS_P1;PMS_P2;Temp;Humidity;BMP_temperature;BMP_pressure;BME280_temperature;BME280_humidity;BME280_pressure;Samples;Min_cycle;Max_cycle;Signal;HPM_P1;HPM_P2
2021/04/08 00:00:28;;;;;;;9.80;3.50;;;;;;;1.03;100.00;97037.63;4963712;28;20206;-70
2021/04/08 00:02:55;;;;;;;7.63;4.05;;;;;;;0.95;100.00;97036.94;4968140;28;20218;-70
2021/04/08 00:05:23;;;;;;;3.17;2.63;;;;;;;0.95;100.00;97026.69;4969340;28;20294;-71
2021/04/08 00:07:49;;;;;;;6.72;3.13;;;;;;;0.95;100.00;97029.25;4966505;28;20236;-70
2021/04/08 00:10:16;;;;;;;4.50;3.03;;;;;;;0.99;100.00;97038.59;4968037;28;20241;-70
2021/04/08 00:12:44;;;;;;;9.75;3.75;;;;;;;0.99;100.00;97033.47;4968946;28;20579;-69
2021/04/08 00:15:13;;;;;;;6.80;2.92;;;;;;;0.97;100.00;97032.63;4985289;28;20249;-70
2021/04/08 00:17:40;;;;;;;3.67;2.45;;;;;;;0.96;100.00;97043.75;4972092;28;20228;-70
2021/04/08 00:20:09;;;;;;;7.60;3.75;;;;;;;0.96;100.00;97036.06;4970099;28;20182;-68
2021/04/08 00:22:37;;;;;;;5.63;3.25;;;;;;;0.97;100.00;97040.31;4966017;28;20236;-71
2021/04/08 00:25:05;;;;;;;5.68;3.60;;;;;;;0.97;100.00;97035.19;4966907;28;20236;-69
2021/04/08 00:27:32;;;;;;;7.05;3.10;;;;;;;0.96;100.00;97041.19;4964587;28;20250;-71
2021/04/08 00:30:00;;;;;;;6.63;2.92;;;;;;;1.03;100.00;97045.31;4964925;28;20209;-71
2021/04/08 00:32:27;;;;;;;6.88;2.85;;;;;;;1.04;100.00;97041.06;4969858;28;20221;-71
2021/04/08 00:35:00;;;;;;;12.48;3.72;;;;;;;1.04;99.32;97041.06;4970021;28;20707;-70
2021/04/08 00:37:27;;;;;;;7.07;3.95;;;;;;;1.09;99.36;97037.53;4968178;28;20218;-69
2021/04/08 00:39:55;;;;;;;8.60;3.45;;;;;;;1.11;98.26;97038.34;4969371;28;20198;-69
2021/04/08 00:42:47;;;;;;;6.38;2.97;;;;;;;1.10;98.69;97041.78;4993279;28;20230;-70
2021/04/08 00:45:27;;;;;;;7.68;3.35;;;;;;;1.14;97.84;97040.00;4991473;28;20204;-72
2021/04/08 00:47:54;;;;;;;5.25;2.88;;;;;;;1.23;96.88;97045.81;4993761;28;20284;-72
2021/04/08 00:50:21;;;;;;;6.35;3.00;;;;;;;1.21;97.38;97039.88;4969837;28;20202;-72
2021/04/08 00:52:53;;;;;;;4.10;2.72;;;;;;;1.24;96.43;97044.06;4969560;28;20706;-71
2021/04/08 00:55:25;;;;;;;5.97;2.80;;;;;;;1.28;95.87;97043.16;4973243;28;20630;-73
2021/04/08 00:57:55;;;;;;;25.25;3.95;;;;;;;1.19;95.40;97030.53;4966513;28;20213;-71
2021/04/08 01:00:23;;;;;;;4.85;2.30;;;;;;;1.34;95.00;97053.31;4966796;28;20795;-71
2021/04/08 01:02:50;;;;;;;9.23;3.00;;;;;;;1.34;94.58;97053.31;4963980;28;20231;-71
2021/04/08 01:05:17;;;;;;;7.85;3.03;;;;;;;1.20;94.18;97042.47;4963968;28;20819;-71
2021/04/08 01:07:44;;;;;;;5.07;2.70;;;;;;;1.31;94.00;97056.78;4970291;28;20587;-69
2021/04/08 01:10:12;;;;;;;5.88;2.60;;;;;;;1.34;93.63;97061.81;4969612;28;20197;-68
2021/04/08 01:12:40;;;;;;;9.73;3.30;;;;;;;1.40;93.03;97061.72;4979681;28;20521;-70
2021/04/08 01:15:09;;;;;;;13.27;3.25;;;;;;;1.38;93.02;97063.47;4971289;28;20601;-70
2021/04/08 01:17:43;;;;;;;7.35;4.28;;;;;;;1.43;92.95;97074.50;4971177;28;20221;-70
2021/04/08 01:20:51;;;;;;;5.82;3.00;;;;;;;1.43;91.87;97071.94;4966431;28;20206;-69
2021/04/08 01:24:18;;;;;;;5.60;3.50;;;;;;;1.53;92.50;97068.31;4950865;28;20245;-69
2021/04/08 01:27:08;;;;;;;8.18;3.00;;;;;;;1.60;92.64;97071.59;4969896;28;20272;-71
2021/04/08 01:29:54;;;;;;;4.10;2.65;;;;;;;1.65;92.58;97080.91;4968074;28;20222;-72
2021/04/08 01:32:24;;;;;;;4.30;3.08;;;;;;;1.71;92.36;97078.19;4964636;28;20502;-70
2021/04/08 01:34:53;;;;;;;7.20;3.58;;;;;;;1.81;92.16;97084.84;4967305;28;20453;-71
2021/04/08 01:37:25;;;;;;;3.60;2.40;;;;;;;1.84;91.13;97087.34;4964557;28;20908;-69
2021/04/08 01:39:54;;;;;;;9.07;2.65;;;;;;;1.83;90.70;97088.22;4966836;28;20193;-70
2021/04/08 01:42:22;;;;;;;5.30;2.75;;;;;;;1.80;91.04;97092.56;4979886;28;20222;-70
2021/04/08 01:44:50;;;;;;;3.28;2.15;;;;;;;1.86;90.54;97089.88;4965299;28;20587;-70
2021/04/08 01:47:18;;;;;;;5.10;2.65;;;;;;;1.85;89.37;97094.16;4969311;28;20817;-69
2021/04/08 01:49:48;;;;;;;3.55;2.20;;;;;;;1.89;90.53;97095.78;4968855;28;20570;-72
2021/04/08 01:52:17;;;;;;;2.55;1.70;;;;;;;1.96;90.65;97093.94;4957181;28;20186;-72
2021/04/08 01:54:48;;;;;;;8.32;1.90;;;;;;;1.95;88.48;97094.81;4962268;28;20771;-72
2021/04/08 01:57:17;;;;;;;3.47;2.67;;;;;;;1.78;87.66;97096.88;4957875;28;20199;-74
2021/04/08 01:59:44;;;;;;;4.82;1.95;;;;;;;1.78;87.53;97089.19;4964966;28;20670;-70
2021/04/08 02:02:13;;;;;;;7.88;2.08;;;;;;;1.71;88.41;97093.56;4968801;28;20190;-71
2021/04/08 02:04:41;;;;;;;6.63;1.70;;;;;;;1.66;86.50;97092.00;4969383;28;20178;-69
2021/04/08 02:07:10;;;;;;;6.13;1.92;;;;;;;1.61;86.51;97092.06;4977719;28;20654;-72
2021/04/08 02:09:39;;;;;;;8.88;1.65;;;;;;;1.58;86.59;97097.28;4963588;28;20889;-71
2021/04/08 02:12:09;;;;;;;2.08;1.00;;;;;;;1.60;85.83;97102.34;4967153;28;20191;-70
2021/04/08 02:14:38;;;;;;;6.72;1.20;;;;;;;1.61;86.15;97102.34;4963176;28;20610;-72
2021/04/08 02:17:06;;;;;;;2.00;1.40;;;;;;;1.60;85.54;97102.34;4967060;28;20528;-70
2021/04/08 02:19:34;;;;;;;4.47;1.48;;;;;;;1.59;84.94;97103.25;4970010;28;20182;-70
2021/04/08 02:22:03;;;;;;;4.45;1.60;;;;;;;1.63;84.91;97104.88;4965707;28;20194;-71
2021/04/08 02:24:33;;;;;;;2.70;1.52;;;;;;;1.59;85.14;97101.53;4968738;28;20189;-70
2021/04/08 02:27:02;;;;;;;2.03;1.00;;;;;;;1.67;84.27;97109.91;4966055;28;20804;-72
2021/04/08 02:29:29;;;;;;;4.53;1.95;;;;;;;1.67;84.70;97117.63;4966101;28;20222;-72
2021/04/08 02:31:59;;;;;;;4.13;1.60;;;;;;;1.77;85.73;97115.72;4964929;28;20198;-69
2021/04/08 02:34:30;;;;;;;4.00;1.75;;;;;;;1.85;85.29;97117.25;4965777;28;20605;-72
2021/04/08 02:36:58;;;;;;;4.55;1.95;;;;;;;1.94;84.98;97114.53;4963293;28;20213;-70
2021/04/08 02:39:25;;;;;;;5.00;2.00;;;;;;;2.07;86.07;97115.94;4963207;28;20187;-72
2021/04/08 02:41:52;;;;;;;3.80;1.50;;;;;;;1.96;86.63;97124.72;4972427;28;20724;-71
2021/04/08 02:44:20;;;;;;;4.28;1.42;;;;;;;1.96;86.70;97130.72;4968780;28;20739;-71
2021/04/08 02:46:47;;;;;;;6.53;1.83;;;;;;;2.07;86.31;97127.94;4964604;28;20199;-71
2021/04/08 02:49:14;;;;;;;5.95;1.63;;;;;;;2.18;85.66;97134.53;4966167;28;20230;-70
2021/04/08 02:51:47;;;;;;;3.35;1.40;;;;;;;2.19;84.67;97127.66;4969609;28;20621;-70
2021/04/08 02:54:23;;;;;;;5.63;1.42;;;;;;;2.11;84.87;97135.53;4968186;28;20229;-70
2021/04/08 02:56:53;;;;;;;3.72;1.38;;;;;;;2.22;84.43;97138.72;4964510;28;20549;-70
2021/04/08 02:59:26;;;;;;;2.70;1.25;;;;;;;2.28;84.78;97136.03;4963247;28;20654;-70
2021/04/08 03:01:58;;;;;;;6.43;1.65;;;;;;;2.33;84.80;97131.66;4964623;28;20559;-70
2021/04/08 03:04:27;;;;;;;6.25;2.10;;;;;;;2.42;84.66;97134.00;4968363;28;20543;-71
2021/04/08 03:06:55;;;;;;;7.50;1.92;;;;;;;2.42;84.84;97140.88;4968047;28;20189;-70
2021/04/08 03:09:29;;;;;;;5.03;2.22;;;;;;;2.30;84.29;97131.72;4963113;28;20607;-71
2021/04/08 03:12:01;;;;;;;2.00;1.77;;;;;;;2.29;83.13;97139.44;4966805;28;20197;-71
2021/04/08 03:14:33;;;;;;;6.68;1.75;;;;;;;2.37;83.76;97142.69;4969118;28;20673;-70
2021/04/08 03:17:02;;;;;;;10.38;2.22;;;;;;;2.35;83.39;97145.28;4963971;28;20232;-71
2021/04/08 03:19:30;;;;;;;3.47;2.10;;;;;;;2.40;83.74;97143.47;4963839;28;20241;-71
2021/04/08 03:21:58;;;;;;;6.18;2.17;;;;;;;2.36;83.95;97152.09;4961070;28;20548;-71
2021/04/08 03:24:28;;;;;;;3.40;1.75;;;;;;;2.38;83.28;97150.38;4968139;28;20623;-70
2021/04/08 03:26:57;;;;;;;7.72;3.03;;;;;;;2.46;82.99;97145.91;4963905;28;20700;-72
2021/04/08 03:29:24;;;;;;;5.90;3.15;;;;;;;2.38;82.85;97152.94;4969422;28;20689;-72
2021/04/08 03:31:56;;;;;;;13.88;6.38;;;;;;;2.38;83.04;97158.09;4967400;28;20822;-71
2021/04/08 03:34:23;;;;;;;7.07;4.60;;;;;;;2.48;83.21;97151.84;4965747;28;20266;-70
2021/04/08 03:36:51;;;;;;;11.13;3.33;;;;;;;2.54;83.33;97141.47;4964821;28;20198;-70
2021/04/08 03:39:19;;;;;;;5.10;2.90;;;;;;;2.57;83.46;97148.25;4964006;28;20740;-69
2021/04/08 03:41:47;;;;;;;12.23;2.83;;;;;;;2.53;83.65;97151.75;4968573;28;20198;-69
2021/04/08 03:44:15;;;;;;;4.50;2.13;;;;;;;2.54;83.61;97150.88;4964142;28;20215;-70
2021/04/08 03:46:45;;;;;;;4.20;1.88;;;;;;;2.57;82.66;97155.97;4969046;28;20577;-69
2021/04/08 03:49:15;;;;;;;8.20;3.38;;;;;;;2.61;82.51;97158.44;4967454;28;20289;-70
2021/04/08 03:51:44;;;;;;;7.20;3.20;;;;;;;2.50;82.62;97149.28;4972120;28;20633;-70
2021/04/08 03:54:15;;;;;;;7.05;2.92;;;;;;;2.33;83.25;97159.03;4970652;28;20609;-70
2021/04/08 03:56:44;;;;;;;5.57;2.10;;;;;;;2.30;83.78;97152.28;4976382;28;20622;-71
2021/04/08 03:59:13;;;;;;;6.30;2.42;;;;;;;2.24;84.21;97157.53;4969844;28;20220;-69
2021/04/08 04:01:40;;;;;;;12.38;3.38;;;;;;;2.29;84.12;97152.28;4970503;28;20825;-68
2021/04/08 04:04:09;;;;;;;3.75;2.25;;;;;;;2.30;84.16;97157.41;4967561;28;20229;-70
2021/04/08 04:06:41;;;;;;;6.85;2.60;;;;;;;2.25;84.35;97164.34;4964778;28;20271;-72
2021/04/08 04:09:11;;;;;;;4.70;2.25;;;;;;;2.20;85.02;97162.75;4970290;28;20226;-70
2021/04/08 04:11:39;;;;;;;8.15;3.30;;;;;;;2.08;84.98;97161.28;4969052;28;20189;-69
2021/04/08 04:14:08;;;;;;;6.00;2.90;;;;;;;1.99;84.75;97170.88;4973307;28;20226;-69
2021/04/08 04:16:38;;;;;;;6.43;2.88;;;;;;;1.75;85.51;97171.31;4967816;28;20601;-69
2021/04/08 04:19:05;;;;;;;4.82;2.38;;;;;;;1.72;85.72;97169.69;4985134;28;20703;-68
2021/04/08 04:21:33;;;;;;;10.15;3.10;;;;;;;1.72;86.20;97169.69;4965900;28;20186;-69
2021/04/08 04:24:01;;;;;;;5.70;2.80;;;;;;;1.63;84.75;97181.84;4968012;28;20635;-69
2021/04/08 04:26:28;;;;;;;13.13;3.13;;;;;;;1.57;84.66;97176.81;4969191;28;20676;-69
2021/04/08 04:28:55;;;;;;;8.68;4.10;;;;;;;1.60;84.54;97176.72;4967602;28;20601;-70
2021/04/08 04:31:22;;;;;;;9.38;4.30;;;;;;;1.54;84.54;97189.69;4972455;28;20730;-67
2021/04/08 04:33:50;;;;;;;6.00;2.88;;;;;;;1.53;84.13;97181.13;4967816;28;20773;-69
2021/04/08 04:36:18;;;;;;;7.20;3.45;;;;;;;1.53;83.69;97186.28;4973688;28;20634;-68
2021/04/08 04:38:45;;;;;;;5.60;3.17;;;;;;;1.54;83.38;97187.13;4960633;28;20217;-68
2021/04/08 04:41:13;;;;;;;6.97;3.08;;;;;;;1.64;83.58;97188.66;4964884;28;20595;-70
2021/04/08 04:43:40;;;;;;;6.70;3.38;;;;;;;1.64;83.12;97189.47;4972686;28;20537;-68
2021/04/08 04:46:09;;;;;;;5.07;2.47;;;;;;;1.54;83.48;97203.34;4970186;28;20190;-69
2021/04/08 04:48:36;;;;;;;4.15;2.95;;;;;;;1.43;83.20;97184.75;4970764;28;20225;-70
2021/04/08 04:51:05;;;;;;;8.85;3.35;;;;;;;1.55;83.42;97205.03;4962643;28;20199;-69
2021/04/08 04:53:32;;;;;;;4.35;2.60;;;;;;;1.48;83.63;97208.56;4959318;28;20245;-68
2021/04/08 04:56:00;;;;;;;6.15;2.80;;;;;;;1.57;84.56;97217.84;4960106;28;20479;-69
2021/04/08 04:58:28;;;;;;;5.47;2.85;;;;;;;1.57;84.43;97216.13;4957505;28;20223;-69
2021/04/08 05:00:55;;;;;;;4.20;2.25;;;;;;;1.55;84.26;97220.41;4959297;28;20677;-70
2021/04/08 05:03:22;;;;;;;9.10;3.03;;;;;;;1.47;84.18;97222.28;4971934;28;20241;-70
2021/04/08 05:05:49;;;;;;;4.30;2.50;;;;;;;1.45;84.66;97218.91;4966433;28;20241;-69
2021/04/08 05:08:17;;;;;;;6.32;3.08;;;;;;;1.42;84.93;97226.63;4966014;28;20226;-72
2021/04/08 05:10:44;;;;;;;11.45;2.45;;;;;;;1.44;85.73;97235.16;4969455;28;20623;-70
2021/04/08 05:13:11;;;;;;;5.55;2.42;;;;;;;1.35;84.85;97217.38;4966791;28;20691;-69
2021/04/08 05:15:39;;;;;;;4.97;1.83;;;;;;;1.56;85.49;97232.38;4968767;28;20576;-68
2021/04/08 05:18:13;;;;;;;6.95;2.35;;;;;;;1.47;85.46;97232.53;4968162;28;20587;-69
2021/04/08 05:20:40;;;;;;;4.50;2.20;;;;;;;1.49;85.54;97235.91;4966076;28;20550;-69
2021/04/08 05:23:07;;;;;;;8.00;2.58;;;;;;;1.46;85.64;97241.09;4968438;28;20511;-68
2021/04/08 05:25:34;;;;;;;8.00;2.53;;;;;;;1.43;85.36;97240.31;4967769;28;20795;-71
2021/04/08 05:28:02;;;;;;;5.10;2.40;;;;;;;1.52;85.69;97240.13;4965664;28;20600;-69
2021/04/08 05:30:28;;;;;;;7.30;2.30;;;;;;;1.54;84.84;97244.38;4962194;28;20202;-69
2021/04/08 05:32:56;;;;;;;3.95;2.38;;;;;;;1.54;85.13;97252.06;4971852;28;20862;-70
2021/04/08 05:35:23;;;;;;;3.08;2.53;;;;;;;1.57;85.16;97252.03;4964593;28;20186;-69
2021/04/08 05:37:50;;;;;;;4.47;2.33;;;;;;;1.59;85.00;97257.97;4968523;28;20862;-67
2021/04/08 05:40:18;;;;;;;6.10;1.83;;;;;;;1.60;85.06;97251.97;4963468;28;20187;-67
2021/04/08 05:42:46;;;;;;;4.93;2.10;;;;;;;1.63;85.66;97236.53;4964661;28;20666;-69
2021/04/08 05:45:16;;;;;;;7.93;2.40;;;;;;;1.65;84.50;97227.09;4968121;28;20186;-68
2021/04/08 05:47:43;;;;;;;3.17;1.80;;;;;;;1.72;83.85;97249.22;4968778;28;20750;-69
2021/04/08 05:50:12;;;;;;;8.85;2.35;;;;;;;1.75;84.27;97249.16;4971046;28;20627;-68
2021/04/08 05:52:40;;;;;;;7.38;2.30;;;;;;;1.74;83.29;97255.16;4968636;28;20218;-68
2021/04/08 05:55:08;;;;;;;4.97;2.63;;;;;;;1.80;83.53;97259.31;4966162;28;20194;-68
2021/04/08 05:57:35;;;;;;;7.90;1.90;;;;;;;1.87;83.94;97258.34;4965664;28;20218;-71
2021/04/08 06:00:03;;;;;;;4.18;3.00;;;;;;;1.87;83.72;97256.66;4966160;28;20630;-68
2021/04/08 06:02:30;;;;;;;7.97;2.88;;;;;;;1.99;82.93;97266.66;4964238;28;20214;-69
2021/04/08 06:04:57;;;;;;;11.40;3.20;;;;;;;2.07;82.54;97262.25;4965102;28;20189;-68
2021/04/08 06:07:26;;;;;;;9.18;2.92;;;;;;;2.14;82.15;97261.25;4960957;28;20228;-67
2021/04/08 06:09:53;;;;;;;5.30;3.00;;;;;;;2.17;81.84;97268.91;4965787;28;20733;-69
2021/04/08 06:12:21;;;;;;;4.72;2.70;;;;;;;2.22;82.52;97272.22;4963045;28;20241;-71
2021/04/08 06:14:49;;;;;;;12.27;3.35;;;;;;;2.16;81.85;97269.78;4966767;28;20241;-70
2021/04/08 06:17:17;;;;;;;11.75;3.03;;;;;;;2.13;81.38;97277.53;4958665;28;20191;-69
2021/04/08 06:19:45;;;;;;;8.07;2.30;;;;;;;2.15;81.02;97267.25;4969545;28;20626;-69
2021/04/08 06:22:13;;;;;;;6.00;2.90;;;;;;;2.22;80.49;97268.81;4965680;28;20648;-70
2021/04/08 06:24:41;;;;;;;4.45;2.67;;;;;;;2.34;80.65;97272.00;4966554;28;20609;-71
2021/04/08 06:27:09;;;;;;;10.82;2.80;;;;;;;2.52;80.35;97271.66;4967723;28;20882;-69
2021/04/08 06:29:36;;;;;;;5.07;3.03;;;;;;;2.62;79.02;97277.44;4962380;28;20206;-70
2021/04/08 06:32:05;;;;;;;5.78;3.13;;;;;;;2.77;78.09;97272.84;4964862;28;20625;-69
2021/04/08 06:34:32;;;;;;;7.45;2.83;;;;;;;2.80;77.82;97272.75;4961530;28;20191;-69
2021/04/08 06:36:59;;;;;;;6.93;3.30;;;;;;;2.89;77.77;97276.88;4964329;28;20192;-69
2021/04/08 06:39:27;;;;;;;5.18;2.95;;;;;;;2.97;76.97;97280.97;4959617;28;20209;-68
2021/04/08 06:41:55;;;;;;;6.65;3.10;;;;;;;2.92;75.85;97277.66;4961385;28;20187;-68
2021/04/08 06:44:24;;;;;;;4.38;3.05;;;;;;;2.73;75.73;97271.19;4960706;28;20215;-67
2021/04/08 06:46:57;;;;;;;6.30;3.40;;;;;;;2.64;76.36;97273.13;4957771;28;20531;-69
2021/04/08 06:49:33;;;;;;;9.00;3.30;;;;;;;2.72;76.13;97284.94;4968117;28;20536;-69
2021/04/08 06:52:02;;;;;;;11.30;3.45;;;;;;;2.55;76.45;97271.59;4963535;28;20623;-67
2021/04/08 06:54:30;;;;;;;4.80;3.42;;;;;;;2.67;76.17;97288.47;4960888;28;20622;-70
2021/04/08 06:56:58;;;;;;;6.97;3.80;;;;;;;2.63;77.41;97290.25;4958527;28;20912;-68
2021/04/08 06:59:26;;;;;;;4.63;3.05;;;;;;;2.81;76.47;97289.88;4970956;28;20241;-70
2021/04/08 07:01:53;;;;;;;9.23;2.75;;;;;;;3.00;76.09;97286.03;4962087;28;20587;-68
2021/04/08 07:04:22;;;;;;;5.05;3.50;;;;;;;3.18;74.29;97284.81;4961516;28;20222;-69
2021/04/08 07:06:52;;;;;;;5.07;2.70;;;;;;;3.38;72.57;97282.63;4971076;28;20626;-69
2021/04/08 07:09:26;;;;;;;9.38;3.28;;;;;;;3.63;72.40;97284.59;4979180;28;20980;-67
2021/04/08 07:11:54;;;;;;;8.35;4.35;;;;;;;3.76;70.83;97285.13;4963840;28;20202;-68
2021/04/08 07:14:24;;;;;;;10.85;4.47;;;;;;;3.63;71.33;97283.72;4960735;28;20803;-69
2021/04/08 07:16:54;;;;;;;15.68;3.65;;;;;;;3.36;71.19;97285.22;4968010;28;20242;-68
2021/04/08 07:19:30;;;;;;;6.57;3.33;;;;;;;3.40;72.82;97288.59;4959252;28;20203;-73
2021/04/08 07:22:00;;;;;;;3.65;2.58;;;;;;;3.29;71.83;97291.41;4955995;28;20261;-72
2021/04/08 07:24:27;;;;;;;10.40;3.85;;;;;;;3.22;71.56;97302.69;4962312;28;20483;-68
2021/04/08 07:26:58;;;;;;;9.32;4.35;;;;;;;3.15;71.24;97296.00;4962168;28;20710;-68
2021/04/08 07:29:55;;;;;;;5.35;3.70;;;;;;;3.10;70.87;97297.81;4964585;28;20836;-71
2021/04/08 07:32:25;;;;;;;11.10;4.82;;;;;;;3.16;72.14;97297.69;4967463;28;20229;-71
2021/04/08 07:34:54;;;;;;;4.40;3.42;;;;;;;3.54;70.46;97304.53;4961454;28;20193;-67
2021/04/08 07:37:26;;;;;;;5.38;3.53;;;;;;;3.62;70.34;97313.78;4980772;28;20649;-69
2021/04/08 07:39:54;;;;;;;11.30;3.65;;;;;;;3.70;70.54;97311.88;4962889;28;20195;-67
2021/04/08 07:42:27;;;;;;;13.77;3.05;;;;;;;3.76;69.74;97313.44;4963950;28;20226;-69
2021/04/08 07:44:57;;;;;;;15.23;3.90;;;;;;;3.96;68.96;97317.22;4976968;28;20190;-67
2021/04/08 07:47:29;;;;;;;8.68;3.05;;;;;;;4.03;69.70;97315.38;4975258;28;20219;-68
2021/04/08 07:49:58;;;;;;;11.68;3.92;;;;;;;3.93;69.92;97320.72;4960823;28;20229;-69
2021/04/08 07:52:29;;;;;;;7.95;3.58;;;;;;;3.84;69.79;97309.81;4966125;28;20537;-69
2021/04/08 07:55:08;;;;;;;7.22;2.45;;;;;;;4.35;69.29;97319.63;4970097;28;20297;-67
2021/04/08 07:58:07;;;;;;;8.68;2.97;;;;;;;4.85;66.98;97316.53;4979393;28;20214;-70
2021/04/08 08:00:37;;;;;;;11.30;2.78;;;;;;;4.97;66.83;97320.50;4928670;28;20254;-71
2021/04/08 08:03:06;;;;;;;6.00;2.60;;;;;;;4.86;65.72;97328.53;4953761;28;20223;-71
2021/04/08 08:05:36;;;;;;;4.18;2.63;;;;;;;4.55;67.27;97321.69;4977997;28;20257;-72
2021/04/08 08:08:11;;;;;;;4.95;2.75;;;;;;;4.78;66.34;97324.47;4993748;28;20654;-71
2021/04/08 08:10:40;;;;;;;4.28;2.40;;;;;;;4.50;67.14;97326.13;4977015;28;20341;-67
2021/04/08 08:13:24;;;;;;;7.22;2.80;;;;;;;4.33;67.67;97331.72;4968980;28;20320;-69
2021/04/08 08:15:52;;;;;;;7.90;3.00;;;;;;;4.58;67.79;97324.19;4967550;28;20211;-69
2021/04/08 08:18:27;;;;;;;7.65;2.70;;;;;;;4.56;67.15;97325.94;4974297;28;20255;-69
2021/04/08 08:21:03;;;;;;;8.02;2.83;;;;;;;4.45;68.15;97326.22;4959022;28;20667;-68
2021/04/08 08:23:35;;;;;;;6.82;3.45;;;;;;;4.46;66.78;97321.94;4974547;28;20600;-70
2021/04/08 08:26:27;;;;;;;6.22;3.40;;;;;;;4.75;66.54;97320.28;4965124;28;20240;-71
2021/04/08 08:28:55;;;;;;;9.73;4.03;;;;;;;4.71;64.60;97315.22;4973902;28;20232;-71
2021/04/08 08:31:40;;;;;;;10.57;3.95;;;;;;;4.86;63.31;97313.06;4988924;28;20268;-70
2021/04/08 08:34:17;;;;;;;6.97;3.88;;;;;;;4.92;63.47;97322.34;4990078;28;20316;-71
2021/04/08 08:36:47;;;;;;;7.70;4.10;;;;;;;5.05;62.30;97321.13;4961796;28;20808;-71
2021/04/08 08:39:17;;;;;;;5.15;3.55;;;;;;;5.16;60.87;97321.66;4962315;28;20228;-70
2021/04/08 08:41:45;;;;;;;5.35;3.03;;;;;;;5.07;60.73;97322.78;4963139;28;20301;-71
2021/04/08 08:44:14;;;;;;;15.20;6.63;;;;;;;5.22;61.71;97321.47;4985976;28;20581;-71
2021/04/08 08:46:46;;;;;;;16.40;6.22;;;;;;;5.20;61.37;97328.41;4968670;28;20204;-71
2021/04/08 08:49:20;;;;;;;6.22;3.50;;;;;;;5.18;61.51;97328.44;4972973;28;20659;-71
2021/04/08 08:51:49;;;;;;;5.22;2.72;;;;;;;4.92;61.51;97312.03;4964664;28;20799;-71
2021/04/08 08:54:18;;;;;;;7.57;3.72;;;;;;;5.13;61.17;97329.47;4979082;28;20637;-70
2021/04/08 08:56:45;;;;;;;5.30;2.88;;;;;;;5.30;61.20;97320.34;4970443;28;20536;-71
2021/04/08 08:59:13;;;;;;;9.68;3.40;;;;;;;5.38;59.92;97333.06;4963245;28;20214;-72
2021/04/08 09:01:41;;;;;;;6.57;2.95;;;;;;;5.67;60.75;97333.84;4966293;28;20689;-71
2021/04/08 09:04:10;;;;;;;7.95;3.15;;;;;;;5.81;59.27;97328.28;4963152;28;20247;-70
2021/04/08 09:06:55;;;;;;;5.60;2.90;;;;;;;6.20;57.82;97337.34;4971182;28;20488;-71
2021/04/08 09:09:24;;;;;;;5.22;3.00;;;;;;;6.36;55.51;97320.41;4960215;28;20218;-71
2021/04/08 09:11:52;;;;;;;6.82;3.17;;;;;;;6.72;56.22;97320.00;4962668;28;20190;-70
2021/04/08 09:14:21;;;;;;;10.88;3.80;;;;;;;7.07;56.84;97316.13;4993682;28;20715;-71
2021/04/08 09:16:51;;;;;;;4.05;2.53;;;;;;;7.28;55.65;97316.16;4971887;28;20611;-71
2021/04/08 09:19:29;;;;;;;7.07;3.22;;;;;;;7.20;54.94;97314.78;4969574;28;20574;-72
2021/04/08 09:21:59;;;;;;;11.48;3.97;;;;;;;7.15;56.27;97314.09;4967653;28;20193;-72
2021/04/08 09:24:35;;;;;;;9.70;3.63;;;;;;;7.06;58.92;97322.22;4962686;28;20222;-71
2021/04/08 09:27:04;;;;;;;8.77;3.65;;;;;;;7.48;55.86;97325.78;4961676;28;20226;-71
2021/04/08 09:29:44;;;;;;;5.68;3.13;;;;;;;7.19;55.55;97315.66;4967470;28;20598;-72
2021/04/08 09:32:29;;;;;;;6.63;3.00;;;;;;;7.27;55.99;97322.25;4969417;28;20617;-72
2021/04/08 09:35:27;;;;;;;5.45;2.75;;;;;;;7.29;55.59;97317.03;4968329;28;20260;-72
2021/04/08 09:38:22;;;;;;;10.35;4.45;;;;;;;7.13;54.36;97324.50;4963937;28;20233;-68
2021/04/08 09:40:53;;;;;;;5.20;3.08;;;;;;;6.96;55.19;97320.84;4966205;28;20225;-69
2021/04/08 09:43:23;;;;;;;10.75;3.50;;;;;;;6.83;54.93;97319.59;4965939;28;20830;-69
2021/04/08 09:45:53;;;;;;;11.13;6.10;;;;;;;6.73;54.74;97316.50;4965537;28;20187;-70
2021/04/08 09:48:23;;;;;;;8.30;3.30;;;;;;;6.42;55.36;97323.63;4968965;28;20469;-69
2021/04/08 09:50:53;;;;;;;10.75;3.78;;;;;;;6.27;54.77;97318.13;4964917;28;20193;-69
2021/04/08 09:53:23;;;;;;;6.78;3.22;;;;;;;5.73;54.90;97317.31;4964987;28;20581;-68
2021/04/08 09:55:53;;;;;;;7.25;4.15;;;;;;;5.71;57.27;97311.34;4983709;28;20587;-68
2021/04/08 09:58:22;;;;;;;12.45;3.53;;;;;;;5.95;56.12;97310.59;4996371;28;20758;-72
2021/04/08 10:00:51;;;;;;;11.13;3.60;;;;;;;6.46;57.97;97304.53;4965299;28;20505;-72
2021/04/08 10:03:29;;;;;;;6.00;3.33;;;;;;;6.92;56.97;97303.75;4965568;28;20659;-71
2021/04/08 10:05:57;;;;;;;7.53;3.38;;;;;;;7.01;55.19;97311.19;4983946;28;20193;-71
2021/04/08 10:08:26;;;;;;;6.95;3.60;;;;;;;6.91;54.59;97308.06;4976901;28;20218;-72
2021/04/08 10:10:53;;;;;;;5.65;3.05;;;;;;;6.84;54.90;97311.78;4982851;28;20223;-72
2021/04/08 10:13:24;;;;;;;10.50;3.45;;;;;;;6.66;54.57;97306.41;4967651;28;20703;-71
2021/04/08 10:15:53;;;;;;;5.00;3.30;;;;;;;6.46;54.84;97319.19;4967090;28;20205;-72
2021/04/08 10:18:22;;;;;;;6.45;3.35;;;;;;;6.75;55.62;97316.44;4997328;28;20424;-71
2021/04/08 10:20:51;;;;;;;14.93;3.58;;;;;;;6.81;54.29;97311.91;4968258;28;20537;-71
2021/04/08 10:23:34;;;;;;;6.05;3.00;;;;;;;6.98;55.00;97311.28;4981376;28;20225;-71
2021/04/08 10:26:06;;;;;;;6.65;2.65;;;;;;;7.27;54.79;97300.69;4957265;28;20262;-72
2021/04/08 10:28:39;;;;;;;7.78;2.90;;;;;;;7.58;54.21;97306.41;4998454;28;20652;-72
2021/04/08 10:31:17;;;;;;;8.38;2.67;;;;;;;7.28;53.13;97305.81;4970972;28;20194;-71
2021/04/08 10:33:44;;;;;;;7.60;3.22;;;;;;;6.98;53.92;97308.69;4983799;28;20562;-71
2021/04/08 10:36:25;;;;;;;8.85;3.30;;;;;;;6.88;53.61;97299.56;4963618;28;20578;-69
2021/04/08 10:39:09;;;;;;;5.30;3.20;;;;;;;7.03;53.89;97292.13;4990067;28;20835;-70
2021/04/08 10:41:37;;;;;;;5.03;2.60;;;;;;;7.47;54.49;97299.03;4994117;28;20194;-70
2021/04/08 10:44:22;;;;;;;8.40;3.30;;;;;;;7.97;53.20;97294.44;4961782;28;20685;-70
2021/04/08 10:46:51;;;;;;;6.25;2.70;;;;;;;7.98;53.85;97290.94;4968148;28;20193;-69
2021/04/08 10:49:24;;;;;;;4.60;3.10;;;;;;;8.02;52.49;97290.75;4980588;28;20298;-70
2021/04/08 10:51:53;;;;;;;5.43;2.95;;;;;;;7.55;51.95;97293.56;4968539;28;20433;-70
2021/04/08 10:54:26;;;;;;;5.40;3.08;;;;;;;7.43;52.79;97294.03;4966377;28;20335;-70
2021/04/08 10:56:54;;;;;;;6.03;2.78;;;;;;;7.24;51.95;97296.50;4964131;28;20336;-68
2021/04/08 10:59:23;;;;;;;8.77;3.30;;;;;;;7.24;52.43;97293.91;4968113;28;20688;-70
2021/04/08 11:01:52;;;;;;;10.20;3.65;;;;;;;7.45;53.83;97295.66;4962315;28;20844;-70
2021/04/08 11:04:21;;;;;;;6.70;3.03;;;;;;;7.33;53.20;97296.13;4961559;28;20602;-69
2021/04/08 11:06:50;;;;;;;10.55;4.00;;;;;;;7.15;52.11;97288.22;4979645;28;20609;-70
2021/04/08 11:09:25;;;;;;;9.68;2.95;;;;;;;7.17;52.33;97286.41;4983729;28;20236;-69
2021/04/08 11:11:53;;;;;;;5.05;2.92;;;;;;;7.50;53.12;97285.13;4967037;28;20194;-69
2021/04/08 11:14:23;;;;;;;18.63;3.80;;;;;;;7.43;51.57;97292.28;4981018;28;20755;-69
2021/04/08 11:16:51;;;;;;;5.78;3.42;;;;;;;7.21;54.34;97293.19;4973733;28;20603;-68
2021/04/08 11:19:21;;;;;;;12.63;3.88;;;;;;;7.17;52.31;97283.81;5003698;28;20217;-69
2021/04/08 11:21:49;;;;;;;5.57;3.15;;;;;;;7.15;51.81;97285.63;4985971;28;20952;-70
2021/04/08 11:24:18;;;;;;;8.70;3.67;;;;;;;7.61;51.84;97278.63;4981366;28;20794;-69
2021/04/08 11:26:51;;;;;;;8.10;3.42;;;;;;;7.96;50.05;97283.22;4967634;28;20230;-69
2021/04/08 11:29:22;;;;;;;5.63;2.70;;;;;;;7.51;50.84;97284.22;4974782;28;20229;-71
2021/04/08 11:32:08;;;;;;;14.02;3.70;;;;;;;7.12;52.52;97285.72;4969828;28;20632;-71
2021/04/08 11:34:46;;;;;;;13.57;3.63;;;;;;;7.36;51.74;97284.81;4967129;28;20218;-72
2021/04/08 11:37:18;;;;;;;10.65;3.42;;;;;;;7.36;52.36;97274.47;4965802;28;20520;-72
2021/04/08 11:39:47;;;;;;;7.63;2.85;;;;;;;7.59;53.49;97279.59;4965707;28;20494;-72
2021/04/08 11:42:19;;;;;;;6.55;2.67;;;;;;;7.30;52.26;97266.94;4964045;28;20225;-72
2021/04/08 11:44:50;;;;;;;9.60;2.83;;;;;;;7.09;53.03;97271.19;5000080;28;20198;-70
2021/04/08 11:47:19;;;;;;;6.03;3.03;;;;;;;6.95;52.57;97267.41;4968202;28;20604;-68
2021/04/08 11:49:50;;;;;;;20.65;3.78;;;;;;;6.85;53.11;97271.25;4967307;28;20194;-68
2021/04/08 11:52:21;;;;;;;10.18;3.08;;;;;;;7.15;53.10;97276.09;4964709;28;20529;-72
2021/04/08 11:55:08;;;;;;;8.10;3.25;;;;;;;8.01;51.23;97263.16;4967042;28;20607;-71